Skip Navigation Links
NOAA logo - Click to go to the NOAA homepage
NOAA's National Weather Service
Alaska Aviation Weather Unit
  NWS logo - Click to go to the NWS homepage
Left Navbar Graphic     17 AKDT = 01 GMT

   
NOAA is celebrating 200 years of science, service, and stewardship. Visit the NOAA 200th celebration Web site to learn more.
USA.gov is the U.S. Government's official Web portal to all Federal, state and local government Web resources and services.
Facebook
NWS on Facebook

Important Change Regarding the AAWU Web Presence

 

Over the last several months, the AAWU has been working to navigate its webpages to a nationally supported server. Security, as well as other needs, have necessitated the change.  We have been given an extension for the site changeover while we diligently work at addressing feedback received. As of July 14, 2017, aawu.arh.noaa.gov will be discontinued. The new AAWU web address is weather.gov/aawu. It is now live and will run in-parallel with the old site until it is discontinued on July 14, 2017. Please continue to send any feedback or questions regarding the new webpages to nws.ar.aawu.webauthors@noaa.gov.  Thank you for your patience during this time of transition.
AAWU Home :: Display TAF Add Bookmark
SPECI PAMK 171912Z AUTO 21007KT 2SM BR SCT002 OVC021 M01/M01 A2949
 RMK AO2 FZRANO $=

SPECI PAMK 171914Z AUTO 21007KT 3SM BR BKN002 OVC021 M01/M01 A2949
 RMK AO2 FZRANO $=

SPECI PAMK 171940Z AUTO 21007KT 10SM SCT002 OVC021 00/M01 A2949 RMK
 AO2 FZRANO $=

METAR PAMK 171956Z AUTO 21007KT 10SM FEW002 OVC021 00/M01 A2950 RMK
 AO2 SLP992 T00001006 FZRANO $=

SPECI PAMK 172030Z AUTO 21006KT 4SM BR BKN002 OVC019 00/M01 A2950
 RMK AO2 FZRANO $=

PAMK 172033Z AUTO 21007KT 1 1/2SM BR BKN002 OVC019 00/M01 A2950
     RMK AO2 FZRANO $=

SPECI PAMK 172039Z AUTO 22007KT 3/4SM BR BKN002 BKN019 OVC024 00/M01
     A2950 RMK AO2 FZRANO $=

SPECI PAMK 172043Z AUTO 22007KT 1 1/4SM BR BKN002 BKN017 OVC024 00/00
     A2950 RMK AO2 FZRANO $=

SPECI PAMK 172047Z AUTO 22007KT 3SM BR BKN002 OVC024 00/00 A2950 RMK AO2
     FZRANO $=

METAR PAMK 172156Z AUTO 21007KT 10SM OVC019 01/00 A2950 RMK AO2 SLP994
     T00060000 FZRANO $=

METAR PAMK 172256Z AUTO 21006KT 10SM OVC017 02/01 A2950 RMK AO2 SLP994
     T00170011 FZRANO $=

PAMK 172356Z AUTO 24004KT 10SM OVC019 02/01 A2950 RMK AO2 SLP993
     T00220011 10022 21011 58000 FZRANO $=

METAR PAMK 180056Z AUTO 27005KT 10SM BKN024 BKN029 03/01 A2950 RMK AO2
     SLP992 T00330011 $=

SPECI PAMK 180117Z AUTO 30005KT 10SM UP BKN011 BKN021 OVC026 02/01 A2950
     RMK AO2 UPB03 P0000 FZRANO $=


NOAA's National Weather Service
Alaska Aviation Weather Unit
6930 Sand Lake Road
Anchorage, AK 99502-1845
Disclaimer
Credits
Glossary
Privacy Policy
About Us
Career Opportunities
Contact AAWU Internet Services Site last modified: April, 17th 2012